createdAt,value
2018-05-06T00:01:02.522Z,20.37
2018-05-06T00:03:30.837Z,20.63
2018-05-06T00:05:59.133Z,21.57
2018-05-06T00:08:27.442Z,21.30
2018-05-06T00:10:56.479Z,21.80
2018-05-06T00:31:27.757Z,23.63
2018-05-06T00:33:56.021Z,21.60
2018-05-06T00:36:24.301Z,22.73
2018-05-06T00:38:52.623Z,22.50
2018-05-06T00:41:20.923Z,23.00
2018-05-06T00:43:49.960Z,22.10
2018-05-06T00:46:18.319Z,23.60
2018-05-06T00:48:47.391Z,23.07
2018-05-06T01:09:18.195Z,23.07
2018-05-06T01:11:46.461Z,23.60
2018-05-06T01:14:14.737Z,23.93
2018-05-06T01:16:43.038Z,23.50
2018-05-06T01:19:11.327Z,24.10
2018-05-06T01:21:39.622Z,24.87
2018-05-06T01:24:07.888Z,22.90
2018-05-06T01:26:36.212Z,23.53
2018-05-06T01:29:04.474Z,24.80
2018-05-06T01:31:32.760Z,23.67
2018-05-06T01:34:01.076Z,22.77
2018-05-06T01:36:30.073Z,23.40
2018-05-06T01:38:58.381Z,24.47
2018-05-06T01:41:26.653Z,24.53
2018-05-06T01:43:54.937Z,22.97
2018-05-06T01:46:23.390Z,22.77
2018-05-06T01:48:51.661Z,25.10
2018-05-06T01:51:19.939Z,23.60
2018-05-06T01:53:48.234Z,23.50
2018-05-06T01:56:17.289Z,24.40
2018-05-06T01:58:45.562Z,24.10
2018-05-06T02:01:13.972Z,23.63
2018-05-06T02:21:45.825Z,24.40
2018-05-06T02:24:14.163Z,25.13
2018-05-06T02:26:42.446Z,25.50
2018-05-06T02:47:12.793Z,23.90
2018-05-06T02:49:41.847Z,24.43
2018-05-06T02:52:10.116Z,25.33
2018-05-06T03:12:43.483Z,24.90
2018-05-06T03:15:13.515Z,26.50
2018-05-06T03:17:42.778Z,25.30
2018-05-06T03:20:11.269Z,27.07
2018-05-06T03:40:40.225Z,29.83
2018-05-06T03:43:08.647Z,30.00
2018-05-06T03:45:38.132Z,27.90
2018-05-06T03:48:06.381Z,29.07
2018-05-06T03:50:35.495Z,29.93
2018-05-06T03:53:04.504Z,30.20
2018-05-06T03:55:32.779Z,29.80
2018-05-06T03:58:13.167Z,29.30
2018-05-06T04:00:46.100Z,29.60
2018-05-06T04:03:15.170Z,29.50
2018-05-06T04:05:44.946Z,29.40
2018-05-06T04:26:17.627Z,26.97
2018-05-06T04:28:46.654Z,26.53
2018-05-06T04:31:14.901Z,27.47
2018-05-06T04:33:44.020Z,27.83
2018-05-06T04:36:12.303Z,27.00
2018-05-06T04:38:40.578Z,27.20
2018-05-06T04:41:09.170Z,27.13
2018-05-06T04:43:37.412Z,24.67
2018-05-06T04:46:05.710Z,25.63
2018-05-06T04:48:35.190Z,25.40
2018-05-06T04:51:03.426Z,27.63
2018-05-06T04:53:32.483Z,27.77
2018-05-06T04:56:01.122Z,27.67
2018-05-06T05:16:33.050Z,26.43
2018-05-06T05:19:02.150Z,27.60
2018-05-06T05:21:31.238Z,26.43
2018-05-06T05:23:59.476Z,26.63
2018-05-06T05:26:27.757Z,28.40
2018-05-06T05:28:56.060Z,26.37
2018-05-06T05:31:24.331Z,26.37
2018-05-06T05:33:52.778Z,27.50
2018-05-06T05:36:21.840Z,27.27
2018-05-06T05:38:50.135Z,26.00
2018-05-06T05:41:18.401Z,27.63
2018-05-06T05:43:46.711Z,25.83
2018-05-06T05:46:15.719Z,25.80
2018-05-06T05:48:44.051Z,27.27
2018-05-06T05:51:12.294Z,25.67
2018-05-06T05:53:40.684Z,25.70
2018-05-06T05:56:08.986Z,25.50
2018-05-06T05:58:37.288Z,24.87
2018-05-06T06:01:05.590Z,25.80
2018-05-06T06:03:33.857Z,25.73
2018-05-06T06:06:02.951Z,24.33
2018-05-06T06:08:31.189Z,26.57
2018-05-06T06:10:59.711Z,26.00
2018-05-06T06:13:27.987Z,25.83
2018-05-06T06:15:56.245Z,24.53
2018-05-06T06:18:24.656Z,25.33
2018-05-06T06:38:57.289Z,26.20
2018-05-06T06:41:25.606Z,25.17
2018-05-06T06:43:53.921Z,26.47
2018-05-06T07:04:26.650Z,26.87
2018-05-06T07:06:54.909Z,27.63
2018-05-06T07:09:23.194Z,27.27
2018-05-06T07:11:51.696Z,26.17
2018-05-06T07:14:19.972Z,25.97
2018-05-06T07:16:48.214Z,28.60
2018-05-06T07:19:16.579Z,26.83
2018-05-06T07:21:45.609Z,26.90
2018-05-06T07:24:13.995Z,27.67
2018-05-06T07:26:42.330Z,26.83
2018-05-06T07:29:10.604Z,27.70
2018-05-06T07:31:38.838Z,26.03
2018-05-06T07:34:07.169Z,27.33
2018-05-06T07:36:35.468Z,27.50
2018-05-06T07:39:03.765Z,26.80
2018-05-06T07:41:32.150Z,26.87
2018-05-06T07:44:00.906Z,26.87
2018-05-06T07:46:29.208Z,27.20
2018-05-06T07:48:57.578Z,26.67
2018-05-06T07:51:25.774Z,27.27
2018-05-06T07:53:54.045Z,27.67
2018-05-06T07:56:22.361Z,26.37
2018-05-06T07:58:50.649Z,27.27
2018-05-06T08:01:18.911Z,26.30
2018-05-06T08:21:49.325Z,26.53
2018-05-06T08:24:17.598Z,27.03
2018-05-06T08:26:45.907Z,25.80
2018-05-06T08:29:14.231Z,26.40
2018-05-06T08:31:42.502Z,26.03
2018-05-06T08:34:10.750Z,27.03
2018-05-06T08:36:39.246Z,25.73
2018-05-06T08:39:07.563Z,26.63
2018-05-06T08:41:36.821Z,26.43
2018-05-06T09:02:10.100Z,26.70
2018-05-06T09:22:43.304Z,26.57
2018-05-06T09:25:12.539Z,26.37
2018-05-06T09:27:40.853Z,26.47
2018-05-06T09:30:09.336Z,24.93
2018-05-06T09:50:41.522Z,23.57
2018-05-06T09:53:09.832Z,26.53
2018-05-06T09:55:38.878Z,24.40
2018-05-06T09:58:07.378Z,26.43
2018-05-06T10:00:35.645Z,25.50
2018-05-06T10:03:03.960Z,24.60
2018-05-06T10:05:32.405Z,24.00
2018-05-06T10:08:00.661Z,24.23
2018-05-06T10:10:28.946Z,24.43
2018-05-06T10:12:57.257Z,25.30
2018-05-06T10:15:25.566Z,26.30
2018-05-06T10:17:53.875Z,25.43
2018-05-06T10:20:23.149Z,22.47
2018-05-06T10:22:51.411Z,24.00
2018-05-06T10:43:25.788Z,25.00
2018-05-06T10:45:54.870Z,23.30
2018-05-06T10:48:23.147Z,25.23
2018-05-06T10:50:51.479Z,24.37
2018-05-06T10:53:19.811Z,23.40
2018-05-06T10:55:48.173Z,21.10
2018-05-06T10:58:16.596Z,20.77
2018-05-06T11:00:44.903Z,20.50
2018-05-06T11:21:16.234Z,15.87
2018-05-06T11:23:44.535Z,17.10
2018-05-06T11:26:13.703Z,17.07
2018-05-06T11:28:42.752Z,16.77
2018-05-06T11:31:11.083Z,16.17
2018-05-06T11:33:39.381Z,15.13
2018-05-06T11:36:07.653Z,14.93
2018-05-06T11:38:36.114Z,14.03
2018-05-06T11:41:04.419Z,15.90
2018-05-06T11:43:33.103Z,14.77
2018-05-06T11:46:01.386Z,14.00
2018-05-06T11:48:35.702Z,14.33
2018-05-06T11:51:03.987Z,14.80
2018-05-06T11:53:32.283Z,14.37
2018-05-06T12:14:03.229Z,12.43
2018-05-06T12:16:31.529Z,11.87
2018-05-06T12:37:04.980Z,11.90
2018-05-06T12:57:35.988Z,10.20
2018-05-06T13:00:04.393Z,10.67
2018-05-06T13:02:32.658Z,10.67
2018-05-06T13:05:02.442Z,9.77
2018-05-06T13:25:35.002Z,9.50
2018-05-06T13:28:04.046Z,9.20
2018-05-06T13:30:32.278Z,9.47
2018-05-06T13:33:01.372Z,8.97
2018-05-06T13:53:32.618Z,8.03
2018-05-06T13:56:00.914Z,7.83
2018-05-06T14:16:32.369Z,6.93
2018-05-06T14:19:00.826Z,7.53
2018-05-06T14:39:31.557Z,7.30
2018-05-06T15:00:05.712Z,6.33
2018-05-06T15:02:34.315Z,5.97
2018-05-06T15:05:02.578Z,6.10
2018-05-06T15:25:34.557Z,5.33
2018-05-06T15:28:02.830Z,5.87
2018-05-06T15:30:31.098Z,5.23
2018-05-06T15:33:00.207Z,5.23
2018-05-06T15:35:29.193Z,5.30
2018-05-06T15:37:58.257Z,4.77
2018-05-06T15:40:26.562Z,4.50
2018-05-06T16:01:00.043Z,4.50
2018-05-06T16:03:40.335Z,5.03
2018-05-06T16:06:09.395Z,4.97
2018-05-06T16:08:37.670Z,4.73
2018-05-06T16:11:06.173Z,4.83
2018-05-06T16:13:35.234Z,4.90
2018-05-06T16:16:03.506Z,4.70
2018-05-06T16:18:32.547Z,4.77
2018-05-06T16:21:00.847Z,5.07
2018-05-06T16:23:29.074Z,4.30
2018-05-06T16:25:57.341Z,4.60
2018-05-06T16:28:25.694Z,4.97
2018-05-06T16:48:56.556Z,4.77
2018-05-06T16:51:24.818Z,4.73
2018-05-06T16:53:53.124Z,5.20
2018-05-06T16:56:21.442Z,4.90
2018-05-06T16:58:49.664Z,5.13
2018-05-06T17:01:17.975Z,5.07
2018-05-06T17:21:50.873Z,4.60
2018-05-06T17:24:19.886Z,4.50
2018-05-06T17:26:48.166Z,4.73
2018-05-06T17:29:17.626Z,4.53
2018-05-06T17:49:49.926Z,4.40
2018-05-06T17:52:18.225Z,4.40
2018-05-06T17:54:46.494Z,5.90
2018-05-06T17:57:16.278Z,7.00
2018-05-06T17:59:44.580Z,4.60
2018-05-06T18:02:12.842Z,4.10
2018-05-06T18:04:41.249Z,4.17
2018-05-06T18:07:09.525Z,4.70
2018-05-06T18:09:37.807Z,4.73
2018-05-06T18:30:10.965Z,4.50
2018-05-06T18:32:39.990Z,4.30
2018-05-06T18:35:08.288Z,4.20
2018-05-06T18:55:40.961Z,4.10
2018-05-06T18:58:09.267Z,4.00
2018-05-06T19:00:37.532Z,3.90
2018-05-06T19:03:05.814Z,3.90
2018-05-06T19:05:34.182Z,4.00
2018-05-06T19:08:02.611Z,4.37
2018-05-06T19:28:34.460Z,4.77
2018-05-06T19:31:02.744Z,4.00
2018-05-06T19:33:31.025Z,4.53
2018-05-06T19:54:03.942Z,4.03
2018-05-06T20:14:36.409Z,4.27
2018-05-06T20:17:04.722Z,4.40
2018-05-06T20:19:33.039Z,4.27
2018-05-06T20:22:01.271Z,4.20
2018-05-06T20:24:29.569Z,4.47
2018-05-06T20:26:57.859Z,4.37
2018-05-06T20:29:26.100Z,4.73
2018-05-06T20:49:59.024Z,3.43
2018-05-06T20:52:27.287Z,3.80
2018-05-06T20:54:55.543Z,3.83
2018-05-06T21:15:28.796Z,3.10
2018-05-06T21:17:57.045Z,4.10
2018-05-06T21:20:25.347Z,3.93
2018-05-06T21:22:53.643Z,3.40
2018-05-06T21:25:21.910Z,3.03
2018-05-06T21:27:50.141Z,3.20
2018-05-06T21:30:19.225Z,3.20
2018-05-06T21:32:47.532Z,3.33
2018-05-06T21:35:15.725Z,3.40
2018-05-06T21:37:44.054Z,3.50
2018-05-06T21:40:12.263Z,3.70
2018-05-06T21:42:41.309Z,3.70
2018-05-06T21:45:09.597Z,3.27
2018-05-06T21:47:37.869Z,3.30
2018-05-06T21:50:06.146Z,3.47
2018-05-06T21:52:34.483Z,3.33
2018-05-06T21:55:02.719Z,3.10
2018-05-06T22:15:35.914Z,2.80
2018-05-06T22:18:04.208Z,2.83
2018-05-06T22:20:32.513Z,3.07
2018-05-06T22:23:00.770Z,3.07
2018-05-06T22:25:29.038Z,3.50
2018-05-06T22:27:57.362Z,2.80
2018-05-06T22:30:25.654Z,2.80
2018-05-06T22:32:53.939Z,3.30
2018-05-06T22:35:22.189Z,3.40
2018-05-06T22:37:50.653Z,3.43
2018-05-06T22:40:18.965Z,3.50
2018-05-06T22:42:47.222Z,3.37
2018-05-06T22:45:15.497Z,3.73
2018-05-06T22:47:43.729Z,3.80
2018-05-06T22:50:12.774Z,3.37
2018-05-06T22:52:41.041Z,3.23
2018-05-06T22:55:09.307Z,3.67
2018-05-06T23:15:42.556Z,3.43
2018-05-06T23:18:10.847Z,3.73
2018-05-06T23:20:39.111Z,3.27
2018-05-06T23:23:07.427Z,3.50
2018-05-06T23:25:35.657Z,3.27
2018-05-06T23:28:03.963Z,3.43
2018-05-06T23:48:35.080Z,3.20
2018-05-06T23:51:03.393Z,2.77
2018-05-06T23:53:31.715Z,3.23
2018-05-06T23:56:00.016Z,3.00
2018-05-06T23:58:29.089Z,2.80
